Sodak Park, South Dakota
Current Conditions -  °F | °C
As of 9:54 PM on Thursday 18 Dec 2014 (Local Time) from KVVV Reporting Station
Broken Clouds Broken Clouds  
Wind Chill: -10°   Ceiling: 2200
Heat Index: -6°   Visibility: 7mi
Dew Point: -8°   Wind: 6mph
Humidity: 86%   Direction: 150°SSE
Pressure: 30.18"   Gusts: NA
Location:  45.4152°N, 96.8664°W
Report Text: KVVV 190354Z AUTO 15005KT 7SM SCT017 BKN022 M06/M08 A3018 RMK AO2
Loading
Personal Weather Stations






























Interactive Weather Map New forecast layout! Learn more

10-Day Weather Forecast

Advertisements
Track Severe Weather on mobile